sensor_id;sensor_type;location;lat;lon;timestamp;pressure;altitude;pressure_sealevel;temperature;humidity
8320;BME280;4197;42.130;24.746;2023-04-04T00:01:07;98181.13;;;8.97;100.00
8320;BME280;4197;42.130;24.746;2023-04-04T00:03:35;98180.28;;;8.89;100.00
8320;BME280;4197;42.130;24.746;2023-04-04T00:06:05;98180.28;;;8.89;100.00
8320;BME280;4197;42.130;24.746;2023-04-04T00:08:35;98174.13;;;8.92;100.00
8320;BME280;4197;42.130;24.746;2023-04-04T00:11:04;98157.44;;;8.83;100.00
8320;BME280;4197;42.130;24.746;2023-04-04T00:13:33;98146.72;;;8.90;100.00
8320;BME280;4197;42.130;24.746;2023-04-04T00:16:01;98143.16;;;8.82;100.00
8320;BME280;4197;42.130;24.746;2023-04-04T00:18:30;98144.00;;;8.90;100.00
8320;BME280;4197;42.130;24.746;2023-04-04T00:20:58;98140.81;;;8.77;100.00
8320;BME280;4197;42.130;24.746;2023-04-04T00:23:26;98138.06;;;8.74;100.00
8320;BME280;4197;42.130;24.746;2023-04-04T00:25:56;98132.00;;;8.87;100.00
8320;BME280;4197;42.130;24.746;2023-04-04T00:28:24;98130.44;;;8.86;100.00
8320;BME280;4197;42.130;24.746;2023-04-04T00:30:52;98133.19;;;8.90;100.00
8320;BME280;4197;42.130;24.746;2023-04-04T00:33:21;98121.16;;;8.84;100.00
8320;BME280;4197;42.130;24.746;2023-04-04T00:35:49;98123.91;;;8.91;100.00
8320;BME280;4197;42.130;24.746;2023-04-04T00:38:17;98130.50;;;8.93;100.00
8320;BME280;4197;42.130;24.746;2023-04-04T00:40:48;98133.94;;;8.87;100.00
8320;BME280;4197;42.130;24.746;2023-04-04T00:43:19;98135.53;;;8.95;100.00
8320;BME280;4197;42.130;24.746;2023-04-04T00:45:48;98141.00;;;9.02;100.00
8320;BME280;4197;42.130;24.746;2023-04-04T00:48:19;98128.28;;;9.06;100.00
8320;BME280;4197;42.130;24.746;2023-04-04T00:50:50;98124.31;;;8.93;100.00
8320;BME280;4197;42.130;24.746;2023-04-04T00:53:19;98124.72;;;8.95;100.00
8320;BME280;4197;42.130;24.746;2023-04-04T00:55:48;98117.81;;;9.01;100.00
8320;BME280;4197;42.130;24.746;2023-04-04T00:58:16;98124.44;;;9.11;100.00
8320;BME280;4197;42.130;24.746;2023-04-04T01:00:46;98119.78;;;9.08;100.00
8320;BME280;4197;42.130;24.746;2023-04-04T01:03:14;98122.16;;;9.13;100.00
8320;BME280;4197;42.130;24.746;2023-04-04T01:05:43;98117.06;;;9.04;100.00
8320;BME280;4197;42.130;24.746;2023-04-04T01:08:11;98112.78;;;9.03;100.00
8320;BME280;4197;42.130;24.746;2023-04-04T01:10:40;98117.09;;;9.08;100.00
8320;BME280;4197;42.130;24.746;2023-04-04T01:13:09;98119.03;;;9.07;100.00
8320;BME280;4197;42.130;24.746;2023-04-04T01:15:39;98111.31;;;9.09;100.00
8320;BME280;4197;42.130;24.746;2023-04-04T01:18:10;98120.19;;;9.10;100.00
8320;BME280;4197;42.130;24.746;2023-04-04T01:20:46;98105.50;;;9.11;100.00
8320;BME280;4197;42.130;24.746;2023-04-04T01:23:18;98109.31;;;8.99;100.00
8320;BME280;4197;42.130;24.746;2023-04-04T01:26:01;98103.56;;;9.08;100.00
8320;BME280;4197;42.130;24.746;2023-04-04T01:28:30;98094.75;;;9.14;100.00
8320;BME280;4197;42.130;24.746;2023-04-04T01:30:59;98082.28;;;9.03;100.00
8320;BME280;4197;42.130;24.746;2023-04-04T01:33:31;98084.97;;;9.03;100.00
8320;BME280;4197;42.130;24.746;2023-04-04T01:36:09;98091.88;;;8.93;100.00
8320;BME280;4197;42.130;24.746;2023-04-04T01:38:49;98090.03;;;9.08;100.00
8320;BME280;4197;42.130;24.746;2023-04-04T01:41:21;98086.19;;;9.09;100.00
8320;BME280;4197;42.130;24.746;2023-04-04T01:43:51;98102.81;;;9.11;100.00
8320;BME280;4197;42.130;24.746;2023-04-04T01:46:19;98100.03;;;9.00;100.00
8320;BME280;4197;42.130;24.746;2023-04-04T01:48:48;98079.22;;;9.04;100.00
8320;BME280;4197;42.130;24.746;2023-04-04T01:51:16;98086.56;;;9.04;100.00
8320;BME280;4197;42.130;24.746;2023-04-04T01:53:44;98093.81;;;8.92;100.00
8320;BME280;4197;42.130;24.746;2023-04-04T01:56:13;98083.78;;;8.93;100.00
8320;BME280;4197;42.130;24.746;2023-04-04T01:58:43;98092.34;;;9.06;100.00
8320;BME280;4197;42.130;24.746;2023-04-04T02:01:11;98091.97;;;9.07;100.00
8320;BME280;4197;42.130;24.746;2023-04-04T02:03:39;98068.03;;;9.09;100.00
8320;BME280;4197;42.130;24.746;2023-04-04T02:06:08;98074.59;;;9.08;100.00
8320;BME280;4197;42.130;24.746;2023-04-04T02:08:36;98071.53;;;9.10;100.00
8320;BME280;4197;42.130;24.746;2023-04-04T02:11:05;98083.09;;;9.07;100.00
8320;BME280;4197;42.130;24.746;2023-04-04T02:13:33;98077.69;;;9.10;100.00
8320;BME280;4197;42.130;24.746;2023-04-04T02:16:05;98070.72;;;9.06;100.00
8320;BME280;4197;42.130;24.746;2023-04-04T02:18:33;98086.63;;;9.18;100.00
8320;BME280;4197;42.130;24.746;2023-04-04T02:21:02;98081.22;;;9.18;100.00
8320;BME280;4197;42.130;24.746;2023-04-04T02:23:31;98076.94;;;9.13;100.00
8320;BME280;4197;42.130;24.746;2023-04-04T02:25:59;98080.81;;;9.16;100.00
8320;BME280;4197;42.130;24.746;2023-04-04T02:28:27;98085.06;;;9.17;100.00
8320;BME280;4197;42.130;24.746;2023-04-04T02:30:59;98082.41;;;9.24;100.00
8320;BME280;4197;42.130;24.746;2023-04-04T02:33:30;98090.16;;;9.26;100.00
8320;BME280;4197;42.130;24.746;2023-04-04T02:35:59;98085.06;;;9.17;100.00
8320;BME280;4197;42.130;24.746;2023-04-04T02:38:27;98078.50;;;9.14;100.00
8320;BME280;4197;42.130;24.746;2023-04-04T02:40:55;98075.88;;;9.29;100.00
8320;BME280;4197;42.130;24.746;2023-04-04T02:43:23;98084.38;;;9.27;100.00
8320;BME280;4197;42.130;24.746;2023-04-04T02:45:52;98078.53;;;9.18;100.00
8320;BME280;4197;42.130;24.746;2023-04-04T02:48:21;98084.72;;;9.22;100.00
8320;BME280;4197;42.130;24.746;2023-04-04T02:50:51;98083.19;;;9.28;100.00
8320;BME280;4197;42.130;24.746;2023-04-04T02:53:19;98067.38;;;9.27;100.00
8320;BME280;4197;42.130;24.746;2023-04-04T02:55:48;98080.06;;;9.19;100.00
8320;BME280;4197;42.130;24.746;2023-04-04T02:58:16;98068.84;;;9.17;100.00
8320;BME280;4197;42.130;24.746;2023-04-04T03:00:45;98077.78;;;9.21;100.00
8320;BME280;4197;42.130;24.746;2023-04-04T03:03:14;98086.22;;;9.16;100.00
8320;BME280;4197;42.130;24.746;2023-04-04T03:05:43;98080.03;;;9.12;100.00
8320;BME280;4197;42.130;24.746;2023-04-04T03:08:13;98073.84;;;9.11;100.00
8320;BME280;4197;42.130;24.746;2023-04-04T03:10:43;98074.25;;;9.17;100.00
8320;BME280;4197;42.130;24.746;2023-04-04T03:13:11;98071.94;;;9.19;100.00
8320;BME280;4197;42.130;24.746;2023-04-04T03:15:39;98082.00;;;9.15;100.00
8320;BME280;4197;42.130;24.746;2023-04-04T03:18:13;98083.09;;;9.07;100.00
8320;BME280;4197;42.130;24.746;2023-04-04T03:20:41;98086.31;;;9.27;100.00
8320;BME280;4197;42.130;24.746;2023-04-04T03:23:09;98076.66;;;9.29;100.00
8320;BME280;4197;42.130;24.746;2023-04-04T03:25:39;98081.94;;;9.08;100.00
8320;BME280;4197;42.130;24.746;2023-04-04T03:28:08;98075.41;;;9.16;100.00
8320;BME280;4197;42.130;24.746;2023-04-04T03:30:37;98083.59;;;9.23;100.00
8320;BME280;4197;42.130;24.746;2023-04-04T03:33:06;98089.44;;;9.36;100.00
8320;BME280;4197;42.130;24.746;2023-04-04T03:35:37;98100.28;;;9.40;100.00
8320;BME280;4197;42.130;24.746;2023-04-04T03:38:05;98102.63;;;9.45;100.00
8320;BME280;4197;42.130;24.746;2023-04-04T03:40:34;98104.91;;;9.39;100.00
8320;BME280;4197;42.130;24.746;2023-04-04T03:43:07;98101.88;;;9.48;100.00
8320;BME280;4197;42.130;24.746;2023-04-04T03:45:36;98102.66;;;9.52;100.00
8320;BME280;4197;42.130;24.746;2023-04-04T03:48:05;98110.78;;;9.55;100.00
8320;BME280;4197;42.130;24.746;2023-04-04T03:50:34;98113.53;;;9.59;100.00
8320;BME280;4197;42.130;24.746;2023-04-04T03:53:04;98108.13;;;9.63;100.00
8320;BME280;4197;42.130;24.746;2023-04-04T03:55:33;98110.38;;;9.50;100.00
8320;BME280;4197;42.130;24.746;2023-04-04T03:58:01;98109.19;;;9.47;100.00
8320;BME280;4197;42.130;24.746;2023-04-04T04:00:31;98116.97;;;9.56;100.00
8320;BME280;4197;42.130;24.746;2023-04-04T04:02:59;98115.84;;;9.64;100.00
8320;BME280;4197;42.130;24.746;2023-04-04T04:05:27;98116.59;;;9.57;100.00
8320;BME280;4197;42.130;24.746;2023-04-04T04:07:56;98118.13;;;9.55;100.00
8320;BME280;4197;42.130;24.746;2023-04-04T04:10:24;98123.16;;;9.53;100.00
8320;BME280;4197;42.130;24.746;2023-04-04T04:12:53;98120.50;;;9.60;100.00
8320;BME280;4197;42.130;24.746;2023-04-04T04:15:21;98126.66;;;9.60;100.00
8320;BME280;4197;42.130;24.746;2023-04-04T04:17:51;98124.72;;;9.61;100.00
8320;BME280;4197;42.130;24.746;2023-04-04T04:20:20;98118.56;;;9.64;100.00
8320;BME280;4197;42.130;24.746;2023-04-04T04:22:48;98118.59;;;9.68;100.00
8320;BME280;4197;42.130;24.746;2023-04-04T04:25:20;98115.50;;;9.69;100.00
8320;BME280;4197;42.130;24.746;2023-04-04T04:27:48;98118.13;;;9.51;100.00
8320;BME280;4197;42.130;24.746;2023-04-04T04:30:16;98124.31;;;9.55;100.00
8320;BME280;4197;42.130;24.746;2023-04-04T04:32:45;98124.34;;;9.59;100.00
8320;BME280;4197;42.130;24.746;2023-04-04T04:35:17;98127.00;;;9.48;100.00
8320;BME280;4197;42.130;24.746;2023-04-04T04:37:47;98115.03;;;9.53;100.00
8320;BME280;4197;42.130;24.746;2023-04-04T04:40:17;98121.59;;;9.48;100.00
8320;BME280;4197;42.130;24.746;2023-04-04T04:42:46;98132.06;;;9.53;100.00
8320;BME280;4197;42.130;24.746;2023-04-04T04:45:17;98128.56;;;9.53;100.00
8320;BME280;4197;42.130;24.746;2023-04-04T04:47:46;98136.38;;;9.65;100.00
8320;BME280;4197;42.130;24.746;2023-04-04T04:50:14;98129.03;;;9.66;100.00
8320;BME280;4197;42.130;24.746;2023-04-04T04:52:44;98136.72;;;9.60;100.00
8320;BME280;4197;42.130;24.746;2023-04-04T04:55:13;98136.38;;;9.72;100.00
8320;BME280;4197;42.130;24.746;2023-04-04T04:57:41;98134.03;;;9.64;100.00
8320;BME280;4197;42.130;24.746;2023-04-04T05:00:10;98129.78;;;9.63;100.00
8320;BME280;4197;42.130;24.746;2023-04-04T05:02:39;98129.84;;;9.73;100.00
8320;BME280;4197;42.130;24.746;2023-04-04T05:05:08;98125.13;;;9.59;100.00
8320;BME280;4197;42.130;24.746;2023-04-04T05:07:36;98130.56;;;9.67;100.00
8320;BME280;4197;42.130;24.746;2023-04-04T05:10:07;98131.72;;;9.62;100.00
8320;BME280;4197;42.130;24.746;2023-04-04T05:12:35;98130.13;;;9.54;100.00
8320;BME280;4197;42.130;24.746;2023-04-04T05:15:05;98129.72;;;9.55;100.00
8320;BME280;4197;42.130;24.746;2023-04-04T05:17:34;98123.25;;;9.71;100.00
8320;BME280;4197;42.130;24.746;2023-04-04T05:20:04;98125.91;;;9.64;100.00
8320;BME280;4197;42.130;24.746;2023-04-04T05:22:33;98130.56;;;9.67;100.00
8320;BME280;4197;42.130;24.746;2023-04-04T05:25:01;98126.25;;;9.48;100.00
8320;BME280;4197;42.130;24.746;2023-04-04T05:27:31;98123.16;;;9.53;100.00
8320;BME280;4197;42.130;24.746;2023-04-04T05:29:59;98123.16;;;9.53;100.00
8320;BME280;4197;42.130;24.746;2023-04-04T05:32:27;98129.72;;;9.48;100.00
8320;BME280;4197;42.130;24.746;2023-04-04T05:34:55;98122.03;;;9.61;100.00
8320;BME280;4197;42.130;24.746;2023-04-04T05:37:24;98131.25;;;9.49;100.00
8320;BME280;4197;42.130;24.746;2023-04-04T05:39:52;98125.47;;;9.51;100.00
8320;BME280;4197;42.130;24.746;2023-04-04T05:42:20;98125.06;;;9.45;100.00
8320;BME280;4197;42.130;24.746;2023-04-04T05:44:50;98123.53;;;9.51;100.00
8320;BME280;4197;42.130;24.746;2023-04-04T05:47:18;98129.38;;;9.57;100.00
8320;BME280;4197;42.130;24.746;2023-04-04T05:49:47;98135.19;;;9.59;100.00
8320;BME280;4197;42.130;24.746;2023-04-04T05:52:16;98140.53;;;9.52;100.00
8320;BME280;4197;42.130;24.746;2023-04-04T05:54:44;98137.88;;;9.59;100.00
8320;BME280;4197;42.130;24.746;2023-04-04T05:57:13;98148.31;;;9.64;100.00
8320;BME280;4197;42.130;24.746;2023-04-04T05:59:41;98139.78;;;9.51;100.00
8320;BME280;4197;42.130;24.746;2023-04-04T06:02:11;98147.53;;;9.56;100.00
8320;BME280;4197;42.130;24.746;2023-04-04T06:04:39;98148.38;;;9.71;100.00
8320;BME280;4197;42.130;24.746;2023-04-04T06:07:07;98149.84;;;9.58;100.00
8320;BME280;4197;42.130;24.746;2023-04-04T06:09:35;98151.44;;;9.63;100.00
8320;BME280;4197;42.130;24.746;2023-04-04T06:12:04;98156.16;;;9.80;100.00
8320;BME280;4197;42.130;24.746;2023-04-04T06:14:32;98159.25;;;9.78;100.00
8320;BME280;4197;42.130;24.746;2023-04-04T06:17:00;98163.16;;;9.88;100.00
8320;BME280;4197;42.130;24.746;2023-04-04T06:19:30;98160.78;;;9.79;100.00
8320;BME280;4197;42.130;24.746;2023-04-04T06:21:58;98157.78;;;9.95;100.00
8320;BME280;4197;42.130;24.746;2023-04-04T06:24:26;98159.72;;;9.98;100.00
8320;BME280;4197;42.130;24.746;2023-04-04T06:26:54;98155.06;;;9.95;100.00
8320;BME280;4197;42.130;24.746;2023-04-04T06:29:23;98155.09;;;10.02;100.00
8320;BME280;4197;42.130;24.746;2023-04-04T06:31:52;98160.53;;;10.13;100.00
8320;BME280;4197;42.130;24.746;2023-04-04T06:34:21;98158.97;;;10.05;100.00
8320;BME280;4197;42.130;24.746;2023-04-04T06:36:50;98157.06;;;10.16;100.00
8320;BME280;4197;42.130;24.746;2023-04-04T06:39:19;98164.44;;;10.19;100.00
8320;BME280;4197;42.130;24.746;2023-04-04T06:41:47;98152.78;;;10.04;100.00
8320;BME280;4197;42.130;24.746;2023-04-04T06:44:15;98158.25;;;10.22;100.00
8320;BME280;4197;42.130;24.746;2023-04-04T06:46:43;98156.00;;;10.32;100.00
8320;BME280;4197;42.130;24.746;2023-04-04T06:49:11;98156.34;;;10.30;100.00
8320;BME280;4197;42.130;24.746;2023-04-04T06:51:40;98156.69;;;10.14;100.00
8320;BME280;4197;42.130;24.746;2023-04-04T06:54:09;98158.56;;;10.03;100.00
8320;BME280;4197;42.130;24.746;2023-04-04T06:56:38;98152.81;;;10.15;100.00
8320;BME280;4197;42.130;24.746;2023-04-04T06:59:06;98149.69;;;10.06;100.00
8320;BME280;4197;42.130;24.746;2023-04-04T07:01:37;98157.03;;;10.05;100.00
8320;BME280;4197;42.130;24.746;2023-04-04T07:04:05;98158.63;;;10.17;100.00
8320;BME280;4197;42.130;24.746;2023-04-04T07:06:33;98149.75;;;10.24;100.00
8320;BME280;4197;42.130;24.746;2023-04-04T07:09:03;98159.47;;;10.29;100.00
8320;BME280;4197;42.130;24.746;2023-04-04T07:11:37;98154.75;;;10.22;100.00
8320;BME280;4197;42.130;24.746;2023-04-04T07:14:06;98157.13;;;10.27;100.00
8320;BME280;4197;42.130;24.746;2023-04-04T07:16:34;98159.81;;;10.23;100.00
8320;BME280;4197;42.130;24.746;2023-04-04T07:19:03;98161.75;;;10.26;100.00
8320;BME280;4197;42.130;24.746;2023-04-04T07:21:32;98162.88;;;10.18;100.00
8320;BME280;4197;42.130;24.746;2023-04-04T07:24:00;98168.75;;;10.27;100.00
8320;BME280;4197;42.130;24.746;2023-04-04T07:26:29;98159.47;;;10.36;100.00
8320;BME280;4197;42.130;24.746;2023-04-04T07:28:59;98171.88;;;10.37;100.00
8320;BME280;4197;42.130;24.746;2023-04-04T07:31:27;98178.84;;;10.34;100.00
8320;BME280;4197;42.130;24.746;2023-04-04T07:33:56;98175.00;;;10.42;100.00
8320;BME280;4197;42.130;24.746;2023-04-04T07:36:24;98180.44;;;10.57;100.00
8320;BME280;4197;42.130;24.746;2023-04-04T07:38:52;98187.81;;;10.56;100.00
8320;BME280;4197;42.130;24.746;2023-04-04T07:41:21;98179.63;;;10.53;100.00
8320;BME280;4197;42.130;24.746;2023-04-04T07:43:50;98188.19;;;10.65;100.00
8320;BME280;4197;42.130;24.746;2023-04-04T07:46:20;98190.50;;;10.56;100.00
8320;BME280;4197;42.130;24.746;2023-04-04T07:48:48;98182.78;;;10.69;100.00
8320;BME280;4197;42.130;24.746;2023-04-04T07:51:17;98194.00;;;10.67;100.00
8320;BME280;4197;42.130;24.746;2023-04-04T07:53:49;98184.69;;;10.54;100.00
8320;BME280;4197;42.130;24.746;2023-04-04T07:56:18;98186.22;;;10.52;100.00
8320;BME280;4197;42.130;24.746;2023-04-04T07:58:47;98175.78;;;10.57;100.00
8320;BME280;4197;42.130;24.746;2023-04-04T08:01:15;98180.81;;;10.55;100.00
8320;BME280;4197;42.130;24.746;2023-04-04T08:03:45;98180.03;;;10.55;100.00
8320;BME280;4197;42.130;24.746;2023-04-04T08:06:13;98182.81;;;10.90;100.00
8320;BME280;4197;42.130;24.746;2023-04-04T08:08:42;98181.25;;;10.82;100.00
8320;BME280;4197;42.130;24.746;2023-04-04T08:11:12;98174.66;;;10.94;100.00
8320;BME280;4197;42.130;24.746;2023-04-04T08:13:41;98185.91;;;11.00;100.00
8320;BME280;4197;42.130;24.746;2023-04-04T08:16:09;98188.25;;;10.98;100.00
8320;BME280;4197;42.130;24.746;2023-04-04T08:18:37;98189.00;;;11.05;100.00
8320;BME280;4197;42.130;24.746;2023-04-04T08:21:07;98192.13;;;11.14;100.00
8320;BME280;4197;42.130;24.746;2023-04-04T08:23:35;98194.03;;;11.21;100.00
8320;BME280;4197;42.130;24.746;2023-04-04T08:26:04;98193.66;;;11.37;100.00
8320;BME280;4197;42.130;24.746;2023-04-04T08:28:32;98199.44;;;11.57;100.00
8320;BME280;4197;42.130;24.746;2023-04-04T08:31:00;98190.53;;;11.46;100.00
8320;BME280;4197;42.130;24.746;2023-04-04T08:33:29;98195.19;;;11.38;100.00
8320;BME280;4197;42.130;24.746;2023-04-04T08:36:14;98188.22;;;11.08;100.00
8320;BME280;4197;42.130;24.746;2023-04-04T08:38:42;98187.84;;;11.03;100.00
8320;BME280;4197;42.130;24.746;2023-04-04T08:41:11;98197.16;;;11.12;100.00
8320;BME280;4197;42.130;24.746;2023-04-04T08:43:43;98199.06;;;11.05;100.00
8320;BME280;4197;42.130;24.746;2023-04-04T08:46:21;98202.19;;;11.10;100.00
8320;BME280;4197;42.130;24.746;2023-04-04T08:48:51;98204.50;;;11.26;100.00
8320;BME280;4197;42.130;24.746;2023-04-04T08:51:21;98211.88;;;11.22;100.00
8320;BME280;4197;42.130;24.746;2023-04-04T08:53:52;98205.28;;;11.23;100.00
8320;BME280;4197;42.130;24.746;2023-04-04T08:56:22;98209.16;;;11.26;100.00
8320;BME280;4197;42.130;24.746;2023-04-04T08:58:50;98217.31;;;11.36;100.00
8320;BME280;4197;42.130;24.746;2023-04-04T09:01:19;98220.78;;;11.51;100.00
8320;BME280;4197;42.130;24.746;2023-04-04T09:03:49;98210.31;;;11.46;100.00
8320;BME280;4197;42.130;24.746;2023-04-04T09:06:21;98214.19;;;11.49;100.00
8320;BME280;4197;42.130;24.746;2023-04-04T09:08:50;98216.13;;;11.41;100.00
8320;BME280;4197;42.130;24.746;2023-04-04T09:11:21;98214.19;;;11.24;100.00
8320;BME280;4197;42.130;24.746;2023-04-04T09:13:51;98216.91;;;11.38;100.00
8320;BME280;4197;42.130;24.746;2023-04-04T09:16:22;98220.81;;;11.33;100.00
8320;BME280;4197;42.130;24.746;2023-04-04T09:18:50;98230.09;;;11.43;100.00
8320;BME280;4197;42.130;24.746;2023-04-04T09:21:20;98213.81;;;11.43;100.00
8320;BME280;4197;42.130;24.746;2023-04-04T09:23:57;98212.63;;;11.51;100.00
8320;BME280;4197;42.130;24.746;2023-04-04T09:26:26;98214.19;;;11.45;100.00
8320;BME280;4197;42.130;24.746;2023-04-04T09:28:55;98215.75;;;11.53;100.00
8320;BME280;4197;42.130;24.746;2023-04-04T09:31:23;98218.47;;;11.53;100.00
8320;BME280;4197;42.130;24.746;2023-04-04T09:33:53;98217.66;;;11.56;100.00
8320;BME280;4197;42.130;24.746;2023-04-04T09:36:24;98220.75;;;11.66;100.00
8320;BME280;4197;42.130;24.746;2023-04-04T09:38:53;98223.88;;;11.57;100.00
8320;BME280;4197;42.130;24.746;2023-04-04T09:41:25;98218.44;;;11.57;100.00
8320;BME280;4197;42.130;24.746;2023-04-04T09:43:56;98228.94;;;11.58;100.00
8320;BME280;4197;42.130;24.746;2023-04-04T09:46:24;98223.50;;;11.58;100.00
8320;BME280;4197;42.130;24.746;2023-04-04T09:48:53;98227.34;;;11.68;100.00
8320;BME280;4197;42.130;24.746;2023-04-04T09:51:32;98240.94;;;11.86;100.00
8320;BME280;4197;42.130;24.746;2023-04-04T09:54:01;98231.59;;;11.91;100.00
8320;BME280;4197;42.130;24.746;2023-04-04T09:56:29;98231.19;;;11.96;100.00
8320;BME280;4197;42.130;24.746;2023-04-04T09:58:59;98225.41;;;11.87;100.00
8320;BME280;4197;42.130;24.746;2023-04-04T10:01:31;98221.91;;;11.90;100.00
8320;BME280;4197;42.130;24.746;2023-04-04T10:04:02;98230.75;;;12.12;100.00
8320;BME280;4197;42.130;24.746;2023-04-04T10:06:35;98230.38;;;12.02;100.00
8320;BME280;4197;42.130;24.746;2023-04-04T10:09:04;98232.28;;;12.20;100.00
8320;BME280;4197;42.130;24.746;2023-04-04T10:11:35;98233.06;;;12.20;100.00
8320;BME280;4197;42.130;24.746;2023-04-04T10:14:04;98233.78;;;12.32;100.00
8320;BME280;4197;42.130;24.746;2023-04-04T10:16:33;98223.72;;;12.28;100.00
8320;BME280;4197;42.130;24.746;2023-04-04T10:19:06;98228.00;;;12.26;100.00
8320;BME280;4197;42.130;24.746;2023-04-04T10:21:37;98222.47;;;12.44;100.00
8320;BME280;4197;42.130;24.746;2023-04-04T10:24:06;98219.03;;;12.36;100.00
8320;BME280;4197;42.130;24.746;2023-04-04T10:26:36;98224.44;;;12.40;100.00
8320;BME280;4197;42.130;24.746;2023-04-04T10:29:04;98214.72;;;12.42;100.00
8320;BME280;4197;42.130;24.746;2023-04-04T10:31:37;98211.19;;;12.49;100.00
8320;BME280;4197;42.130;24.746;2023-04-04T10:34:13;98214.25;;;12.55;100.00
8320;BME280;4197;42.130;24.746;2023-04-04T10:36:48;98207.09;;;13.38;100.00
8320;BME280;4197;42.130;24.746;2023-04-04T10:39:22;98215.13;;;13.90;100.00
8320;BME280;4197;42.130;24.746;2023-04-04T10:41:52;98201.28;;;14.12;100.00
8320;BME280;4197;42.130;24.746;2023-04-04T10:44:27;98194.88;;;14.25;100.00
8320;BME280;4197;42.130;24.746;2023-04-04T10:47:01;98199.84;;;14.34;100.00
8320;BME280;4197;42.130;24.746;2023-04-04T10:49:31;98199.97;;;14.54;100.00
8320;BME280;4197;42.130;24.746;2023-04-04T10:52:02;98211.69;;;14.51;100.00
8320;BME280;4197;42.130;24.746;2023-04-04T10:54:31;98206.16;;;14.27;100.00
8320;BME280;4197;42.130;24.746;2023-04-04T10:57:01;98196.53;;;14.46;100.00
8320;BME280;4197;42.130;24.746;2023-04-04T10:59:30;98195.88;;;14.39;100.00
8320;BME280;4197;42.130;24.746;2023-04-04T11:02:00;98198.00;;;14.58;100.00
8320;BME280;4197;42.130;24.746;2023-04-04T11:04:33;98197.28;;;14.81;100.00
8320;BME280;4197;42.130;24.746;2023-04-04T11:07:16;98198.63;;;14.97;100.00
8320;BME280;4197;42.130;24.746;2023-04-04T11:09:49;98197.00;;;14.99;100.00
8320;BME280;4197;42.130;24.746;2023-04-04T11:12:25;98198.78;;;15.09;100.00
8320;BME280;4197;42.130;24.746;2023-04-04T11:15:06;98194.84;;;14.60;100.00
8320;BME280;4197;42.130;24.746;2023-04-04T11:17:43;98186.94;;;14.69;100.00
8320;BME280;4197;42.130;24.746;2023-04-04T11:20:18;98189.28;;;14.94;100.00
8320;BME280;4197;42.130;24.746;2023-04-04T11:22:50;98184.22;;;14.69;100.00
8320;BME280;4197;42.130;24.746;2023-04-04T11:25:39;98188.09;;;14.37;100.00
8320;BME280;4197;42.130;24.746;2023-04-04T11:28:12;98182.97;;;14.43;100.00
8320;BME280;4197;42.130;24.746;2023-04-04T11:30:42;98188.22;;;14.26;100.00
8320;BME280;4197;42.130;24.746;2023-04-04T11:33:25;98183.41;;;14.07;100.00
8320;BME280;4197;42.130;24.746;2023-04-04T11:35:58;98185.16;;;14.24;100.00
8320;BME280;4197;42.130;24.746;2023-04-04T11:38:38;98183.97;;;14.25;100.00
8320;BME280;4197;42.130;24.746;2023-04-04T11:41:08;98178.75;;;14.38;100.00
8320;BME280;4197;42.130;24.746;2023-04-04T11:43:43;98184.16;;;14.42;100.00
8320;BME280;4197;42.130;24.746;2023-04-04T11:46:16;98181.44;;;14.42;100.00
8320;BME280;4197;42.130;24.746;2023-04-04T11:48:46;98183.34;;;14.45;100.00
8320;BME280;4197;42.130;24.746;2023-04-04T11:51:17;98182.28;;;14.35;100.00
8320;BME280;4197;42.130;24.746;2023-04-04T11:53:48;98183.72;;;14.43;100.00
8320;BME280;4197;42.130;24.746;2023-04-04T11:56:18;98187.41;;;14.60;100.00
8320;BME280;4197;42.130;24.746;2023-04-04T11:58:47;98188.47;;;14.97;100.00
8320;BME280;4197;42.130;24.746;2023-04-04T12:01:27;98183.63;;;14.54;100.00
8320;BME280;4197;42.130;24.746;2023-04-04T12:03:58;98189.16;;;14.47;100.00
8320;BME280;4197;42.130;24.746;2023-04-04T12:06:29;98182.50;;;14.79;100.00
8320;BME280;4197;42.130;24.746;2023-04-04T12:09:00;98188.47;;;14.70;100.00
8320;BME280;4197;42.130;24.746;2023-04-04T12:11:30;98180.34;;;14.66;100.00
8320;BME280;4197;42.130;24.746;2023-04-04T12:14:00;98176.94;;;14.59;100.00
8320;BME280;4197;42.130;24.746;2023-04-04T12:16:29;98183.72;;;14.74;100.00
8320;BME280;4197;42.130;24.746;2023-04-04T12:19:00;98178.78;;;14.65;100.00
8320;BME280;4197;42.130;24.746;2023-04-04T12:21:30;98180.13;;;14.54;100.00
8320;BME280;4197;42.130;24.746;2023-04-04T12:24:01;98181.44;;;14.42;100.00
8320;BME280;4197;42.130;24.746;2023-04-04T12:26:29;98177.31;;;14.30;100.00
8320;BME280;4197;42.130;24.746;2023-04-04T12:28:59;98181.63;;;14.27;100.00
8320;BME280;4197;42.130;24.746;2023-04-04T12:31:28;98176.31;;;14.13;100.00
8320;BME280;4197;42.130;24.746;2023-04-04T12:33:58;98181.88;;;14.06;100.00
8320;BME280;4197;42.130;24.746;2023-04-04T12:36:28;98182.28;;;14.04;100.00
8320;BME280;4197;42.130;24.746;2023-04-04T12:38:58;98184.06;;;13.84;100.00
8320;BME280;4197;42.130;24.746;2023-04-04T12:41:29;98196.75;;;13.60;100.00
8320;BME280;4197;42.130;24.746;2023-04-04T12:43:59;98197.00;;;13.35;100.00
8320;BME280;4197;42.130;24.746;2023-04-04T12:46:34;98199.97;;;13.03;100.00
8320;BME280;4197;42.130;24.746;2023-04-04T12:49:06;98193.22;;;12.69;100.00
8320;BME280;4197;42.130;24.746;2023-04-04T12:51:36;98198.78;;;12.44;100.00
8320;BME280;4197;42.130;24.746;2023-04-04T12:54:05;98195.78;;;12.21;100.00
8320;BME280;4197;42.130;24.746;2023-04-04T12:56:36;98207.88;;;12.09;100.00
8320;BME280;4197;42.130;24.746;2023-04-04T12:59:07;98224.59;;;11.97;100.00
8320;BME280;4197;42.130;24.746;2023-04-04T13:01:37;98228.50;;;11.92;100.00
8320;BME280;4197;42.130;24.746;2023-04-04T13:04:07;98231.97;;;11.75;100.00
8320;BME280;4197;42.130;24.746;2023-04-04T13:06:36;98245.59;;;11.46;100.00
8320;BME280;4197;42.130;24.746;2023-04-04T13:09:15;98254.13;;;11.23;100.00
8320;BME280;4197;42.130;24.746;2023-04-04T13:12:06;98266.88;;;10.94;100.00
8320;BME280;4197;42.130;24.746;2023-04-04T13:14:57;98264.47;;;10.60;100.00
8320;BME280;4197;42.130;24.746;2023-04-04T13:17:39;98274.88;;;10.44;100.00
8320;BME280;4197;42.130;24.746;2023-04-04T13:20:08;98278.31;;;10.34;100.00